createdAt,value
2023-09-03T00:00:44.850Z,75.44
2023-09-03T00:03:12.626Z,77.46
2023-09-03T00:05:49.026Z,76.81
2023-09-03T00:08:16.577Z,76.18
2023-09-03T00:10:44.146Z,76.06
2023-09-03T00:13:13.055Z,76.00
2023-09-03T00:15:41.125Z,75.78
2023-09-03T00:18:11.045Z,75.98
2023-09-03T00:20:40.908Z,76.08
2023-09-03T00:23:08.760Z,76.15
2023-09-03T00:25:37.284Z,76.18
2023-09-03T00:28:05.373Z,75.99
2023-09-03T00:30:34.372Z,76.08
2023-09-03T00:33:02.081Z,76.05
2023-09-03T00:35:29.692Z,76.17
2023-09-03T00:37:57.283Z,76.21
2023-09-03T00:40:24.847Z,76.04
2023-09-03T00:42:52.414Z,76.48
2023-09-03T00:45:20.029Z,76.56
2023-09-03T00:47:49.297Z,76.35
2023-09-03T00:50:17.154Z,76.46
2023-09-03T00:52:44.906Z,76.54
2023-09-03T00:55:12.547Z,76.63
2023-09-03T00:57:40.266Z,76.87
2023-09-03T01:00:09.185Z,76.94
2023-09-03T01:02:37.828Z,78.30
2023-09-03T01:05:07.551Z,77.87
2023-09-03T01:07:35.191Z,77.10
2023-09-03T01:10:03.243Z,77.28
2023-09-03T01:12:37.132Z,76.93
2023-09-03T01:15:14.226Z,77.16
2023-09-03T01:17:47.667Z,76.91
2023-09-03T01:20:20.054Z,76.99
2023-09-03T01:23:22.605Z,78.61
2023-09-03T01:26:13.408Z,79.14
2023-09-03T01:28:43.696Z,80.38
2023-09-03T01:31:13.315Z,80.91
2023-09-03T01:33:43.370Z,81.98
2023-09-03T01:36:12.728Z,79.59
2023-09-03T01:38:41.428Z,80.39
2023-09-03T01:41:10.033Z,81.21
2023-09-03T01:43:37.869Z,82.67
2023-09-03T01:46:09.382Z,78.62
2023-09-03T01:48:55.388Z,77.42
2023-09-03T01:51:30.939Z,78.13
2023-09-03T01:54:05.366Z,80.60
2023-09-03T01:56:38.660Z,81.01
2023-09-03T01:59:17.058Z,80.97
2023-09-03T02:01:47.285Z,79.95
2023-09-03T02:04:15.113Z,81.04
2023-09-03T02:06:46.731Z,80.43
2023-09-03T02:09:14.621Z,79.66
2023-09-03T02:11:42.252Z,81.63
2023-09-03T02:14:09.877Z,82.20
2023-09-03T02:16:37.531Z,82.01
2023-09-03T02:19:06.593Z,80.93
2023-09-03T02:21:34.208Z,77.93
2023-09-03T02:24:01.867Z,78.47
2023-09-03T02:26:29.468Z,76.73
2023-09-03T02:28:57.066Z,78.10
2023-09-03T02:31:24.873Z,78.88
2023-09-03T02:33:52.536Z,78.14
2023-09-03T02:36:21.495Z,78.47
2023-09-03T02:38:49.047Z,80.08
2023-09-03T02:41:16.584Z,78.03
2023-09-03T02:43:44.106Z,80.51
2023-09-03T02:46:11.723Z,79.72
2023-09-03T02:48:39.370Z,81.84
2023-09-03T02:51:07.023Z,83.29
2023-09-03T02:53:35.925Z,79.29
2023-09-03T02:56:03.731Z,78.99
2023-09-03T02:58:31.306Z,80.96
2023-09-03T03:01:05.328Z,78.01
2023-09-03T03:03:32.857Z,80.83
2023-09-03T03:06:00.441Z,78.23
2023-09-03T03:08:28.009Z,76.93
2023-09-03T03:11:06.351Z,81.36
2023-09-03T03:13:33.924Z,80.51
2023-09-03T03:16:06.144Z,77.47
2023-09-03T03:18:34.994Z,78.81
2023-09-03T03:21:07.009Z,82.50
2023-09-03T03:23:34.829Z,81.59
2023-09-03T03:26:04.714Z,81.84
2023-09-03T03:28:34.375Z,82.44
2023-09-03T03:31:10.326Z,83.36
2023-09-03T03:33:38.253Z,82.92
2023-09-03T03:36:06.195Z,78.63
2023-09-03T03:38:34.156Z,81.67
2023-09-03T03:41:10.735Z,77.83
2023-09-03T03:43:38.659Z,77.45
2023-09-03T03:46:07.251Z,81.64
2023-09-03T03:48:35.338Z,78.58
2023-09-03T03:51:03.455Z,77.32
2023-09-03T03:53:31.329Z,81.00
2023-09-03T03:55:59.998Z,78.12
2023-09-03T03:58:30.472Z,80.67
2023-09-03T04:00:58.365Z,80.97
2023-09-03T04:03:28.564Z,78.62
2023-09-03T04:06:00.041Z,80.30
2023-09-03T04:08:28.629Z,82.15
2023-09-03T04:10:59.657Z,81.07
2023-09-03T04:13:29.009Z,81.43
2023-09-03T04:15:57.105Z,82.20
2023-09-03T04:18:25.178Z,83.12
2023-09-03T04:20:54.009Z,88.02
2023-09-03T04:23:21.869Z,82.22
2023-09-03T04:25:49.653Z,85.81
2023-09-03T04:28:17.222Z,88.85
2023-09-03T04:30:46.183Z,86.30
2023-09-03T04:33:14.496Z,85.68
2023-09-03T04:35:42.141Z,85.59
2023-09-03T04:38:10.393Z,85.73
2023-09-03T04:40:38.545Z,81.95
2023-09-03T04:43:07.289Z,83.43
2023-09-03T04:45:34.922Z,87.03
2023-09-03T04:48:04.046Z,83.17
2023-09-03T04:50:32.000Z,83.61
2023-09-03T04:52:59.592Z,84.13
2023-09-03T04:55:27.188Z,81.19
2023-09-03T04:57:54.809Z,80.14
2023-09-03T05:00:22.613Z,81.97
2023-09-03T05:02:50.356Z,80.85
2023-09-03T05:05:19.823Z,83.22
2023-09-03T05:07:48.371Z,82.37
2023-09-03T05:10:16.672Z,84.81
2023-09-03T05:12:44.869Z,83.97
2023-09-03T05:15:13.865Z,84.50
2023-09-03T05:17:41.810Z,83.30
2023-09-03T05:20:10.467Z,83.63
2023-09-03T05:22:39.540Z,84.42
2023-09-03T05:25:08.512Z,81.74
2023-09-03T05:27:38.500Z,82.41
2023-09-03T05:30:08.060Z,82.44
2023-09-03T05:32:35.610Z,81.31
2023-09-03T05:35:03.186Z,82.97
2023-09-03T05:37:30.854Z,82.86
2023-09-03T05:39:59.791Z,79.24
2023-09-03T05:42:27.353Z,83.50
2023-09-03T05:44:56.445Z,81.80
2023-09-03T05:47:24.304Z,81.48
2023-09-03T05:49:56.183Z,84.79
2023-09-03T05:52:23.843Z,83.23
2023-09-03T05:54:52.179Z,79.84
2023-09-03T05:57:21.855Z,78.56
2023-09-03T05:59:51.100Z,82.76
2023-09-03T06:02:19.051Z,79.72
2023-09-03T06:04:46.646Z,80.89
2023-09-03T06:07:14.645Z,82.71
2023-09-03T06:09:42.407Z,83.26
2023-09-03T06:12:10.196Z,81.88
2023-09-03T06:14:41.087Z,82.34
2023-09-03T06:17:08.981Z,81.26
2023-09-03T06:19:36.553Z,83.16
2023-09-03T06:22:04.232Z,83.91
2023-09-03T06:24:31.887Z,83.24
2023-09-03T06:26:59.489Z,82.23
2023-09-03T06:29:27.503Z,82.19
2023-09-03T06:31:56.614Z,79.38
2023-09-03T06:34:26.491Z,78.94
2023-09-03T06:36:54.061Z,80.08
2023-09-03T06:39:21.799Z,80.44
2023-09-03T06:41:49.340Z,81.11
2023-09-03T06:44:17.540Z,81.62
2023-09-03T06:46:45.159Z,79.95
2023-09-03T06:49:14.044Z,82.44
2023-09-03T06:51:41.804Z,82.62
2023-09-03T06:54:09.648Z,81.47
2023-09-03T06:56:37.221Z,80.78
2023-09-03T06:59:05.036Z,80.16
2023-09-03T07:01:33.161Z,79.38
2023-09-03T07:04:01.034Z,81.51
2023-09-03T07:06:30.325Z,80.95
2023-09-03T07:08:58.134Z,78.57
2023-09-03T07:11:26.036Z,77.60
2023-09-03T07:13:53.956Z,78.15
2023-09-03T07:16:21.862Z,78.58
2023-09-03T07:18:49.760Z,76.68
2023-09-03T07:21:17.600Z,76.61
2023-09-03T07:23:46.885Z,78.49
2023-09-03T07:26:15.581Z,78.00
2023-09-03T07:28:43.369Z,76.65
2023-09-03T07:31:11.380Z,76.24
2023-09-03T07:33:39.789Z,75.96
2023-09-03T07:36:12.131Z,77.98
2023-09-03T07:38:40.176Z,77.50
2023-09-03T07:41:09.240Z,75.89
2023-09-03T07:43:37.277Z,75.26
2023-09-03T07:46:06.377Z,74.85
2023-09-03T07:48:35.563Z,74.20
2023-09-03T07:51:03.609Z,73.56
2023-09-03T07:53:33.897Z,73.23
2023-09-03T07:56:02.084Z,72.25
2023-09-03T07:58:31.504Z,72.13
2023-09-03T08:00:59.780Z,71.69
2023-09-03T08:03:33.778Z,71.17
2023-09-03T08:06:02.178Z,70.09
2023-09-03T08:08:30.523Z,72.15
2023-09-03T08:10:58.564Z,70.48
2023-09-03T08:13:26.797Z,69.27
2023-09-03T08:15:56.286Z,69.21
2023-09-03T08:18:24.779Z,68.66
2023-09-03T08:20:53.596Z,67.61
2023-09-03T08:23:22.116Z,66.83
2023-09-03T08:25:50.282Z,65.94
2023-09-03T08:28:18.295Z,65.70
2023-09-03T08:30:48.737Z,64.94
2023-09-03T08:33:18.185Z,63.92
2023-09-03T08:35:46.898Z,63.46
2023-09-03T08:38:15.150Z,62.59
2023-09-03T08:40:45.043Z,60.77
2023-09-03T08:43:16.943Z,58.71
2023-09-03T08:45:52.275Z,56.94
2023-09-03T08:48:22.271Z,56.14
2023-09-03T08:50:50.565Z,54.38
2023-09-03T08:53:19.080Z,53.02
2023-09-03T08:55:46.900Z,50.98
2023-09-03T08:58:16.577Z,49.86
2023-09-03T09:00:44.745Z,47.83
2023-09-03T09:03:13.221Z,48.44
2023-09-03T09:05:43.972Z,47.09
2023-09-03T09:08:12.021Z,46.66
2023-09-03T09:10:48.285Z,45.37
2023-09-03T09:13:21.832Z,45.07
2023-09-03T09:15:49.707Z,44.79
2023-09-03T09:18:17.392Z,44.53
2023-09-03T09:20:48.457Z,44.09
2023-09-03T09:23:22.882Z,42.88
2023-09-03T09:25:51.437Z,42.57
2023-09-03T09:28:19.058Z,42.37
2023-09-03T09:30:56.835Z,42.52
2023-09-03T09:33:25.221Z,42.69
2023-09-03T09:35:55.040Z,44.30
2023-09-03T09:38:36.803Z,43.67
2023-09-03T09:41:22.395Z,44.68
2023-09-03T09:43:50.136Z,45.52
2023-09-03T09:46:26.973Z,45.91
2023-09-03T09:48:58.699Z,46.02
2023-09-03T09:51:28.848Z,46.76
2023-09-03T09:53:57.691Z,46.78
2023-09-03T09:56:29.919Z,47.51
2023-09-03T09:58:59.358Z,46.46
2023-09-03T10:01:28.561Z,46.56
2023-09-03T10:03:56.656Z,45.92
2023-09-03T10:06:25.195Z,45.16
2023-09-03T10:08:54.132Z,45.35
2023-09-03T10:11:22.222Z,46.32
2023-09-03T10:13:50.467Z,46.05
2023-09-03T10:16:21.550Z,45.36
2023-09-03T10:18:51.262Z,45.14
2023-09-03T10:21:23.385Z,45.46
2023-09-03T10:23:58.060Z,45.33
2023-09-03T10:26:30.984Z,45.98
2023-09-03T10:29:05.226Z,46.19
2023-09-03T10:31:35.576Z,46.85
2023-09-03T10:34:03.619Z,47.03
2023-09-03T10:36:31.834Z,46.34
2023-09-03T10:39:23.293Z,45.54
2023-09-03T10:42:11.492Z,47.02
2023-09-03T10:44:43.292Z,45.13
2023-09-03T10:47:15.134Z,45.80
2023-09-03T10:49:43.091Z,46.69
2023-09-03T10:52:36.205Z,46.73
2023-09-03T10:55:21.815Z,47.62
2023-09-03T10:57:50.769Z,47.59
2023-09-03T11:00:22.369Z,48.27
2023-09-03T11:03:23.989Z,49.67
2023-09-03T11:06:20.039Z,47.38
2023-09-03T11:08:47.964Z,47.60
2023-09-03T11:11:23.449Z,47.69
2023-09-03T11:13:52.414Z,49.02
2023-09-03T11:16:20.436Z,47.95
2023-09-03T11:18:51.558Z,47.15
2023-09-03T11:21:19.205Z,48.07
2023-09-03T11:24:00.724Z,46.98
2023-09-03T11:26:30.032Z,47.07
2023-09-03T11:28:58.245Z,46.08
2023-09-03T11:31:26.587Z,45.69
2023-09-03T11:33:54.808Z,45.65
2023-09-03T11:36:22.846Z,45.63
2023-09-03T11:38:51.259Z,45.88
2023-09-03T11:41:19.770Z,46.17
2023-09-03T11:43:49.392Z,46.04
2023-09-03T11:46:18.306Z,46.43
2023-09-03T11:48:50.306Z,46.28
2023-09-03T11:51:27.448Z,46.94
2023-09-03T11:53:56.299Z,46.13
2023-09-03T11:56:26.047Z,46.56
2023-09-03T11:58:59.640Z,46.50
2023-09-03T12:01:27.723Z,46.78
2023-09-03T12:03:55.611Z,46.11
2023-09-03T12:06:23.297Z,46.04
2023-09-03T12:08:50.972Z,46.11
2023-09-03T12:11:18.598Z,45.97
2023-09-03T12:13:46.210Z,46.05
2023-09-03T12:16:16.635Z,46.33
2023-09-03T12:18:56.298Z,47.36
2023-09-03T12:21:32.814Z,46.25
2023-09-03T12:24:00.525Z,47.37
2023-09-03T12:26:28.176Z,46.63
2023-09-03T12:28:57.368Z,46.53
2023-09-03T12:31:41.409Z,46.06
2023-09-03T12:34:09.667Z,46.61
2023-09-03T12:36:55.451Z,45.58
2023-09-03T12:39:30.318Z,45.28
2023-09-03T12:41:58.035Z,45.10
2023-09-03T12:44:27.573Z,45.32
2023-09-03T12:46:56.802Z,45.06
2023-09-03T12:49:25.053Z,45.09
2023-09-03T12:51:52.702Z,45.25
2023-09-03T12:54:20.599Z,46.12
2023-09-03T12:56:48.380Z,45.44
2023-09-03T12:59:16.037Z,45.30
2023-09-03T13:01:43.935Z,46.06
2023-09-03T13:04:15.447Z,45.63
2023-09-03T13:06:43.793Z,46.51
2023-09-03T13:09:11.517Z,45.94
2023-09-03T13:11:39.548Z,46.60
2023-09-03T13:14:07.418Z,45.96
2023-09-03T13:16:35.360Z,45.72
2023-09-03T13:19:03.085Z,44.61
2023-09-03T13:21:36.795Z,45.34
2023-09-03T13:24:04.946Z,44.64
2023-09-03T13:26:32.623Z,44.77
2023-09-03T13:29:00.231Z,45.24
2023-09-03T13:31:27.908Z,45.54
2023-09-03T13:33:57.266Z,45.95
2023-09-03T13:36:24.960Z,46.55
2023-09-03T13:38:54.145Z,47.84
2023-09-03T13:41:24.062Z,46.06
2023-09-03T13:43:52.218Z,46.36
2023-09-03T13:46:22.527Z,45.79
2023-09-03T13:48:50.713Z,45.71
2023-09-03T13:51:18.422Z,45.32
2023-09-03T13:53:47.407Z,45.08
2023-09-03T13:56:16.407Z,44.98
2023-09-03T13:58:44.014Z,44.49
2023-09-03T14:01:11.690Z,45.11
2023-09-03T14:03:39.470Z,45.13
2023-09-03T14:06:08.108Z,45.71
2023-09-03T14:08:35.898Z,45.67
2023-09-03T14:11:03.601Z,45.12
2023-09-03T14:13:32.877Z,44.78
2023-09-03T14:16:01.150Z,44.85
2023-09-03T14:18:29.202Z,45.11
2023-09-03T14:20:57.244Z,45.41
2023-09-03T14:23:25.219Z,45.80
2023-09-03T14:25:53.094Z,45.75
2023-09-03T14:28:20.991Z,44.95
2023-09-03T14:30:50.364Z,45.12
2023-09-03T14:33:18.959Z,44.20
2023-09-03T14:35:48.009Z,43.84
2023-09-03T14:38:15.651Z,43.55
2023-09-03T14:40:50.311Z,43.46
2023-09-03T14:43:17.900Z,43.62
2023-09-03T14:45:45.488Z,44.24
2023-09-03T14:48:14.817Z,44.29
2023-09-03T14:50:42.785Z,44.88
2023-09-03T14:53:10.482Z,45.74
2023-09-03T14:55:43.151Z,45.50
2023-09-03T14:58:10.765Z,46.16
2023-09-03T15:00:38.384Z,46.66
2023-09-03T15:03:06.740Z,46.54
2023-09-03T15:05:35.804Z,46.77
2023-09-03T15:08:03.492Z,46.88
2023-09-03T15:10:31.401Z,47.01
2023-09-03T15:12:59.042Z,47.21
2023-09-03T15:15:26.672Z,47.32
2023-09-03T15:17:54.343Z,46.95
2023-09-03T15:20:22.003Z,47.04
2023-09-03T15:22:51.033Z,46.92
2023-09-03T15:25:18.974Z,46.94
2023-09-03T15:27:46.614Z,47.38
2023-09-03T15:30:14.577Z,47.62
2023-09-03T15:32:42.257Z,47.61
2023-09-03T15:35:10.199Z,47.31
2023-09-03T15:37:37.866Z,47.54
2023-09-03T15:40:08.788Z,47.56
2023-09-03T15:42:36.473Z,47.50
2023-09-03T15:45:04.756Z,47.33
2023-09-03T15:47:32.550Z,47.89
2023-09-03T15:50:00.308Z,47.99
2023-09-03T15:52:28.109Z,48.05
2023-09-03T15:54:55.996Z,48.17
2023-09-03T15:57:25.372Z,48.26
2023-09-03T15:59:53.177Z,48.42
2023-09-03T16:02:21.114Z,47.94
2023-09-03T16:04:48.962Z,47.96
2023-09-03T16:07:18.696Z,48.31
2023-09-03T16:09:46.743Z,48.34
2023-09-03T16:12:14.944Z,48.35
2023-09-03T16:14:44.286Z,48.78
2023-09-03T16:17:12.339Z,48.93
2023-09-03T16:19:40.234Z,49.41
2023-09-03T16:22:08.060Z,49.26
2023-09-03T16:24:35.990Z,49.07
2023-09-03T16:27:04.365Z,49.02
2023-09-03T16:29:33.779Z,49.38
2023-09-03T16:32:08.074Z,49.35
2023-09-03T16:34:52.501Z,49.76
2023-09-03T16:37:23.612Z,50.30
2023-09-03T16:39:51.994Z,50.56
2023-09-03T16:42:20.805Z,50.71
2023-09-03T16:44:50.852Z,50.73
2023-09-03T16:47:26.202Z,51.24
2023-09-03T16:49:58.733Z,50.82
2023-09-03T16:52:29.590Z,51.05
2023-09-03T16:55:00.281Z,51.27
2023-09-03T16:57:31.968Z,51.08
2023-09-03T17:00:00.771Z,51.37
2023-09-03T17:02:31.441Z,51.53
2023-09-03T17:05:02.334Z,51.10
2023-09-03T17:07:41.190Z,51.10
2023-09-03T17:10:12.691Z,51.76
2023-09-03T17:12:46.880Z,52.13
2023-09-03T17:15:18.625Z,52.36
2023-09-03T17:17:52.587Z,52.03
2023-09-03T17:20:22.617Z,52.53
2023-09-03T17:23:08.166Z,52.15
2023-09-03T17:25:37.468Z,52.48
2023-09-03T17:28:20.366Z,52.53
2023-09-03T17:30:57.574Z,52.99
2023-09-03T17:33:28.325Z,52.75
2023-09-03T17:35:58.272Z,52.97
2023-09-03T17:38:30.893Z,52.39
2023-09-03T17:41:02.274Z,53.05
2023-09-03T17:43:34.881Z,53.03
2023-09-03T17:46:04.047Z,52.67
2023-09-03T17:48:34.268Z,52.81
2023-09-03T17:51:12.503Z,53.37
2023-09-03T17:53:42.645Z,54.14
2023-09-03T17:56:13.395Z,54.58
2023-09-03T17:58:44.272Z,55.33
2023-09-03T18:01:12.919Z,56.17
2023-09-03T18:03:45.670Z,56.76
2023-09-03T18:06:16.948Z,56.98
2023-09-03T18:08:49.556Z,57.06
2023-09-03T18:11:20.383Z,57.25
2023-09-03T18:13:49.301Z,57.90
2023-09-03T18:16:21.230Z,57.88
2023-09-03T18:18:52.172Z,58.27
2023-09-03T18:21:22.649Z,58.63
2023-09-03T18:23:52.505Z,58.70
2023-09-03T18:26:24.238Z,58.78
2023-09-03T18:28:52.938Z,58.98
2023-09-03T18:31:23.939Z,59.11
2023-09-03T18:33:58.561Z,59.49
2023-09-03T18:36:27.498Z,59.89
2023-09-03T18:38:58.403Z,60.08
2023-09-03T18:41:27.337Z,59.94
2023-09-03T18:43:56.196Z,60.26
2023-09-03T18:46:25.087Z,60.01
2023-09-03T18:48:58.357Z,60.41
2023-09-03T18:51:26.931Z,60.72
2023-09-03T18:53:57.716Z,60.74
2023-09-03T18:56:26.526Z,60.78
2023-09-03T18:58:56.254Z,60.64
2023-09-03T19:01:28.754Z,60.28
2023-09-03T19:03:59.528Z,60.41
2023-09-03T19:06:28.555Z,60.50
2023-09-03T19:08:59.632Z,60.62
2023-09-03T19:14:17.070Z,61.50
2023-09-03T19:16:48.895Z,61.43
2023-09-03T19:19:22.826Z,61.95
2023-09-03T19:21:52.422Z,62.12
2023-09-03T19:24:27.304Z,61.72
2023-09-03T19:26:57.333Z,61.97
2023-09-03T19:29:27.346Z,61.91
2023-09-03T19:32:03.932Z,62.09
2023-09-03T19:34:52.396Z,62.17
2023-09-03T19:40:14.965Z,62.29
2023-09-03T19:42:53.871Z,62.42
2023-09-03T19:45:33.450Z,62.60
2023-09-03T19:48:32.355Z,62.93
2023-09-03T19:51:02.816Z,62.90
2023-09-03T19:53:32.853Z,63.14
2023-09-03T19:56:06.084Z,63.28
2023-09-03T19:58:35.013Z,63.23
2023-09-03T20:01:07.075Z,64.34
2023-09-03T20:03:36.440Z,63.69
2023-09-03T20:06:07.104Z,64.00
2023-09-03T20:08:36.079Z,64.32
2023-09-03T20:11:06.072Z,64.43
2023-09-03T20:13:40.266Z,64.46
2023-09-03T20:16:09.099Z,63.81
2023-09-03T20:18:38.849Z,64.10
2023-09-03T20:21:08.952Z,64.49
2023-09-03T20:23:39.495Z,64.50
2023-09-03T20:26:09.952Z,63.96
2023-09-03T20:28:46.486Z,64.43
2023-09-03T20:31:17.135Z,64.50
2023-09-03T20:33:46.465Z,64.80
2023-09-03T20:36:16.822Z,64.82
2023-09-03T20:38:45.792Z,65.11
2023-09-03T20:41:14.778Z,66.41
2023-09-03T20:43:43.836Z,66.93
2023-09-03T20:46:13.478Z,65.36
2023-09-03T20:48:42.455Z,64.74
2023-09-03T20:51:11.033Z,65.10
2023-09-03T20:53:41.407Z,64.73
2023-09-03T20:56:10.173Z,65.03
2023-09-03T20:58:38.879Z,64.75
2023-09-03T21:01:14.155Z,64.62
2023-09-03T21:03:43.964Z,64.72
2023-09-03T21:06:12.958Z,64.79
2023-09-03T21:08:43.772Z,65.09
2023-09-03T21:11:12.477Z,65.14
2023-09-03T21:13:42.693Z,64.76
2023-09-03T21:16:11.497Z,64.96
2023-09-03T21:18:40.254Z,65.10
2023-09-03T21:21:08.968Z,65.17
2023-09-03T21:23:37.618Z,64.93
2023-09-03T21:26:15.135Z,65.18
2023-09-03T21:28:44.334Z,65.25
2023-09-03T21:31:19.663Z,65.33
2023-09-03T21:33:48.927Z,65.31
2023-09-03T21:36:20.729Z,65.51
2023-09-03T21:38:50.468Z,65.31
2023-09-03T21:41:20.709Z,65.32
2023-09-03T21:43:52.778Z,65.67
2023-09-03T21:46:21.581Z,65.38
2023-09-03T21:48:50.438Z,65.21
2023-09-03T21:51:20.553Z,65.58
2023-09-03T21:53:50.272Z,65.38
2023-09-03T21:56:20.399Z,67.33
2023-09-03T21:58:49.561Z,65.60
2023-09-03T22:01:18.427Z,65.03
2023-09-03T22:03:47.212Z,65.20
2023-09-03T22:06:16.247Z,65.47
2023-09-03T22:08:45.204Z,65.66
2023-09-03T22:11:13.851Z,66.33
2023-09-03T22:13:43.815Z,67.76
2023-09-03T22:16:12.951Z,66.71
2023-09-03T22:18:55.623Z,69.51
2023-09-03T22:21:26.343Z,69.35
2023-09-03T22:23:54.912Z,70.69
2023-09-03T22:26:23.698Z,68.50
2023-09-03T22:28:53.946Z,67.14
2023-09-03T22:31:22.531Z,66.98
2023-09-03T22:33:51.124Z,66.54
2023-09-03T22:36:19.565Z,66.66
2023-09-03T22:38:48.075Z,66.43
2023-09-03T22:41:16.936Z,66.50
2023-09-03T22:43:45.693Z,66.34
2023-09-03T22:46:15.516Z,66.25
2023-09-03T22:48:44.130Z,66.22
2023-09-03T22:51:12.626Z,66.52
2023-09-03T22:53:41.402Z,66.29
2023-09-03T22:56:10.627Z,68.02
2023-09-03T22:58:40.208Z,66.93
2023-09-03T23:01:08.837Z,66.64
2023-09-03T23:03:39.028Z,68.50
2023-09-03T23:06:07.499Z,66.91
2023-09-03T23:08:36.007Z,67.04
2023-09-03T23:11:04.533Z,67.18
2023-09-03T23:13:33.472Z,68.14
2023-09-03T23:16:01.717Z,68.00
2023-09-03T23:18:33.207Z,71.45
2023-09-03T23:21:09.751Z,72.79
2023-09-03T23:23:39.516Z,68.21
2023-09-03T23:26:07.706Z,67.41
2023-09-03T23:28:36.328Z,66.93
2023-09-03T23:31:04.752Z,67.02
2023-09-03T23:33:35.042Z,67.45
2023-09-03T23:36:04.639Z,69.49
2023-09-03T23:38:33.949Z,70.93
2023-09-03T23:41:02.460Z,70.92
2023-09-03T23:43:31.040Z,71.28
2023-09-03T23:45:59.876Z,70.88
2023-09-03T23:48:28.331Z,70.22
2023-09-03T23:50:56.493Z,70.66
2023-09-03T23:53:26.830Z,71.46
2023-09-03T23:55:55.460Z,69.25
2023-09-03T23:58:24.225Z,69.39
